Date,TemperatureHighF,TemperatureAvgF,TemperatureLowF,DewpointHighF,DewpointAvgF,DewpointLowF,HumidityHigh,HumidityAvg,HumidityLow,PressureMaxIn,PressureMinIn,WindSpeedMaxMPH,WindSpeedAvgMPH,GustSpeedMaxMPH,PrecipitationSumIn
2013-1-1,34,27,25,21,11,1,78,52,24,0.00,40.00,29,16,34,0.00
2013-1-2,36,30,26,8,4,-2,46,33,22,0.00,40.00,30,20,34,0.00
2013-1-3,36,34,32,6,1,-9,31,25,14,0.00,40.00,30,21,39,0.00
2013-1-4,46,38,30,10,-4,-32,27,18,3,0.00,40.00,23,11,24,0.00
2013-1-5,52,46,38,8,-6,-31,28,13,3,0.00,40.00,28,9,32,0.00
2013-1-6,35,32,29,30,13,0,94,53,23,0.00,40.00,41,34,47,0.41
2013-1-7,40,37,34,17,12,9,49,37,29,0.00,40.00,32,25,41,0.00
2013-1-8,49,45,40,23,14,2,37,29,18,0.00,40.00,27,14,34,0.00
2013-1-9,52,47,41,27,22,18,45,36,30,0.00,40.00,33,18,48,0.00
2013-1-10,41,35,29,28,23,19,89,66,44,0.00,40.00,43,27,58,0.00
2013-1-11,22,20,18,17,16,15,90,85,75,0.00,40.00,42,39,47,0.00
2013-1-12,26,21,18,17,15,13,89,77,64,0.00,40.00,42,21,47,0.00
2013-1-13,28,21,18,18,10,3,86,63,47,0.00,40.00,47,13,52,0.00
2013-1-14,21,18,16,8,-4,-11,66,38,24,0.00,40.00,30,14,38,0.00
2013-1-15,32,26,19,11,5,-9,45,40,28,0.00,40.00,39,30,45,0.00
2013-1-16,37,34,30,15,14,11,49,43,35,0.00,40.00,39,29,48,0.00
2013-1-17,41,38,36,12,10,8,35,31,27,0.00,40.00,26,19,31,0.00
2013-1-18,43,41,38,14,12,10,33,30,27,0.00,40.00,19,14,23,0.00
2013-1-19,45,42,40,11,9,6,29,25,20,0.00,40.00,16,13,21,0.00
2013-1-20,47,45,42,9,4,-2,22,18,13,0.00,40.00,18,13,20,0.00
2013-1-21,47,46,43,2,-2,-4,16,14,12,0.00,40.00,23,14,25,0.00
2013-1-22,58,50,44,26,5,-12,38,18,7,0.00,40.00,19,12,23,0.00
2013-1-23,54,51,46,33,26,19,61,39,28,0.00,40.00,27,16,30,0.00
2013-1-24,48,45,41,45,41,30,95,86,57,0.00,40.00,35,13,37,0.00
2013-1-25,45,43,40,44,42,39,96,96,95,0.00,40.00,15,11,17,0.00
2013-1-26,43,41,39,42,39,37,95,93,80,0.00,40.00,21,14,26,0.00
2013-1-27,38,32,25,37,30,23,95,92,85,0.00,40.00,59,29,60,0.00
2013-1-28,25,24,24,23,22,17,93,89,74,0.00,40.00,30,13,30,0.00
2013-1-29,50,35,24,26,22,17,85,59,34,0.00,40.00,43,24,48,0.00
2013-1-30,45,39,34,24,21,20,62,49,39,0.00,40.00,29,16,31,0.00
2013-1-31,45,43,40,26,24,19,54,48,37,0.00,40.00,26,15,31,0.00
2013-2-1,52,48,44,27,18,6,42,30,17,0.00,40.00,15,8,16,0.00
2013-2-2,53,49,46,27,18,7,43,30,18,0.00,40.00,13,9,16,0.00
2013-2-3,48,44,41,38,34,21,83,67,35,0.00,40.00,20,8,28,0.00
2013-2-4,48,45,42,33,27,24,68,49,42,0.00,40.00,17,9,21,0.00
2013-2-5,52,47,42,29,23,19,52,39,32,0.00,40.00,26,9,29,0.00
2013-2-6,48,44,40,22,18,6,47,36,20,0.00,40.00,39,15,42,0.00
2013-2-7,48,42,29,27,17,1,85,40,16,0.00,40.00,42,11,54,0.00
2013-2-8,29,25,22,25,22,20,92,91,78,0.00,40.00,61,25,68,0.00
2013-2-9,22,22,21,20,20,19,92,91,91,0.00,40.00,43,16,52,0.00
2013-2-10,27,25,23,25,23,19,92,91,84,0.00,40.00,13,6,22,0.00
2013-2-11,29,26,23,25,15,-1,92,65,30,0.00,40.00,16,7,24,0.00
2013-2-12,35,30,26,7,3,-1,41,31,26,0.00,40.00,30,18,40,0.00
2013-2-13,44,39,34,17,12,5,36,33,28,0.00,40.00,26,13,27,0.00
2013-2-14,44,42,40,20,18,16,40,38,34,0.00,40.00,30,18,35,0.00
2013-2-15,44,41,38,18,13,7,41,32,22,0.00,40.00,34,22,39,0.00
2013-2-16,50,45,41,15,6,-15,27,21,6,0.00,40.00,25,13,36,0.00
2013-2-17,46,42,38,21,11,6,48,29,22,0.00,40.00,32,22,36,0.00
2013-2-18,48,43,37,31,10,-1,63,26,16,0.00,40.00,28,9,30,0.00
2013-2-19,39,28,24,27,18,-6,93,76,14,0.00,40.00,32,14,35,0.00
2013-2-20,26,22,20,24,19,15,93,88,82,0.00,40.00,8,6,10,0.00
2013-2-21,28,27,26,26,24,15,92,86,57,0.00,40.00,17,12,24,0.00
2013-2-22,38,34,28,21,11,4,58,39,32,0.00,40.00,20,9,24,0.00
2013-2-23,46,39,33,24,17,9,63,41,29,0.00,40.00,44,21,52,0.00
2013-2-24,38,30,27,22,4,-3,63,35,22,0.00,40.00,30,20,43,0.00
2013-2-25,45,38,31,14,4,-5,35,25,16,0.00,40.00,27,17,34,0.00
2013-2-26,45,39,37,10,4,-5,30,24,12,0.00,40.00,25,16,34,0.00
2013-2-27,39,36,32,7,3,-2,31,25,18,0.00,40.00,26,17,32,0.00
2013-2-28,44,40,37,7,3,-2,22,20,18,0.00,40.00,33,22,35,0.00
2013-3-1,49,46,43,16,11,6,26,24,21,0.00,40.00,26,19,31,0.00
2013-3-2,62,52,47,24,17,5,31,26,15,0.00,40.00,34,13,39,0.00
2013-3-3,51,46,36,25,15,6,65,31,17,0.00,40.00,68,39,78,0.00
2013-3-4,52,42,33,32,28,17,85,58,28,0.00,40.00,63,21,73,0.00
2013-3-5,51,46,41,29,25,4,53,44,19,0.00,40.00,39,15,50,0.00
2013-3-6,48,39,31,32,20,4,88,52,19,0.00,40.00,50,29,54,0.00
2013-3-7,35,32,29,33,30,27,94,92,85,0.00,40.00,43,27,52,0.00
2013-3-8,32,28,24,31,26,22,95,92,89,0.00,40.00,36,27,46,0.00
2013-3-9,32,30,27,31,29,26,95,94,93,0.00,40.00,24,13,32,0.00
2013-3-10,44,40,31,28,17,9,89,42,23,0.00,40.00,34,15,37,0.00
2013-3-11,54,48,43,22,13,4,32,24,18,0.00,40.00,22,12,24,0.00
2013-3-12,54,52,49,21,15,7,28,23,17,0.00,40.00,20,14,23,0.00
2013-3-13,59,56,53,22,20,18,27,24,21,0.00,40.00,22,15,25,0.00
2013-3-14,64,60,56,26,22,20,26,24,21,0.00,40.00,21,11,25,0.00
2013-3-15,66,60,52,32,24,13,37,25,15,0.00,40.00,49,18,51,0.00
2013-3-16,63,56,51,30,15,-4,39,21,9,0.00,40.00,45,25,51,0.00
2013-3-17,62,55,50,28,16,4,40,22,13,0.00,40.00,37,16,45,0.00
2013-3-18,58,53,48,27,12,-5,35,21,8,0.00,40.00,44,16,48,0.00
2013-3-19,53,50,48,35,23,9,60,35,19,0.00,40.00,45,28,51,0.00
2013-3-20,56,51,44,32,24,14,47,36,26,0.00,40.00,41,26,47,0.00
2013-3-21,58,50,43,34,26,12,59,41,21,0.00,40.00,46,22,60,0.00
2013-3-22,57,49,42,37,21,12,62,35,24,0.00,40.00,50,17,57,0.00
2013-3-23,52,48,46,35,15,-7,64,28,9,0.00,40.00,29,13,34,0.00
2013-3-24,53,50,46,34,21,5,53,34,16,0.00,40.00,20,8,22,0.00
2013-3-25,59,53,50,38,22,15,52,31,22,0.00,40.00,26,7,28,0.00
2013-3-26,56,50,44,25,15,4,39,25,16,0.00,40.00,45,26,49,0.00
2013-3-27,50,45,41,31,20,6,66,38,18,0.00,40.00,43,23,46,0.00
2013-3-28,57,50,41,36,29,21,67,45,33,0.00,40.00,30,15,42,0.00
2013-3-29,59,54,50,39,29,3,59,39,13,0.00,40.00,16,6,16,0.00
2013-3-30,58,52,48,38,22,-100,54,34,9,0.00,40.00,29,13,32,0.00
2013-3-31,48,42,35,38,33,19,94,73,35,0.00,40.00,50,38,54,0.00
2013-4-1,46,39,32,34,26,10,93,63,29,0.00,40.00,39,30,45,0.00
2013-4-2,57,49,37,39,26,15,74,43,28,0.00,40.00,29,12,41,0.00
2013-4-3,62,55,51,41,28,23,58,35,24,0.00,40.00,14,7,17,0.00
2013-4-4,59,53,44,34,24,-4,69,37,8,0.00,40.00,38,21,47,0.00
2013-4-5,51,44,41,37,31,23,79,60,34,0.00,40.00,58,35,68,0.00
2013-4-6,60,52,43,35,28,12,62,41,19,0.00,40.00,36,21,42,0.00
2013-4-7,60,55,47,43,26,15,66,34,21,0.00,40.00,41,15,45,0.00
2013-4-8,44,34,29,34,30,27,94,87,60,0.00,40.00,73,46,88,0.00
2013-4-9,46,40,32,28,18,12,57,42,27,0.00,40.00,56,12,25,0.00
2013-4-10,55,46,39,23,14,8,41,28,17,0.00,40.00,20,9,32,0.00
2013-4-11,56,52,49,34,21,4,53,30,14,0.00,40.00,33,20,39,0.00
2013-4-12,59,54,50,28,21,12,39,27,20,0.00,40.00,12,7,18,0.00
2013-4-13,57,54,48,33,25,10,47,34,26,0.00,40.00,58,28,62,0.00
2013-4-14,53,48,42,35,25,-16,66,44,6,0.00,40.00,54,36,61,0.00
2013-4-15,46,37,31,35,31,28,93,79,52,0.00,40.00,60,47,72,0.00
2013-4-16,34,30,26,29,26,21,93,86,77,0.00,40.00,44,25,56,0.00
2013-4-17,46,38,28,23,10,3,81,36,18,0.00,40.00,45,12,52,0.00
2013-4-18,47,40,35,12,6,1,36,24,17,0.00,40.00,32,18,40,0.00
2013-4-19,57,49,42,17,7,0,23,18,13,0.00,40.00,33,18,36,0.00
2013-4-20,62,56,50,20,16,11,23,20,17,0.00,40.00,33,13,39,0.00
2013-4-21,68,61,58,32,21,10,32,22,15,0.00,40.00,26,8,27,0.00
2013-4-22,65,60,52,33,15,-15,38,20,4,0.00,40.00,36,17,40,0.00
2013-4-23,60,55,51,26,22,14,35,27,19,0.00,40.00,35,16,40,0.00
2013-4-24,59,54,36,38,25,14,90,35,18,0.00,40.00,26,10,32,0.00
2013-4-25,58,44,33,38,32,18,94,70,25,0.00,40.00,34,15,43,0.00
2013-4-26,64,58,53,31,23,15,36,26,21,0.00,40.00,24,8,24,0.00
2013-4-27,66,62,56,32,21,10,34,22,11,0.00,40.00,24,9,27,0.00
2013-4-28,73,64,61,29,18,9,27,17,10,0.00,40.00,26,14,34,0.00
2013-4-29,74,65,59,29,19,8,27,17,13,0.00,40.00,38,16,42,0.00
2013-4-30,62,58,55,37,23,8,46,28,13,0.00,40.00,42,30,46,0.00
2013-5-1,62,58,56,27,17,-4,32,20,9,0.00,40.00,38,20,41,0.00
2013-5-2,57,53,48,1,-2,-5,13,10,8,0.00,40.00,25,17,32,0.00
2013-5-3,64,59,55,21,7,-4,22,12,8,0.00,40.00,19,10,28,0.00
2013-5-4,60,54,45,32,14,4,38,21,13,0.00,40.00,56,28,62,0.00
2013-5-5,47,43,37,37,24,8,89,52,22,0.00,40.00,48,26,54,0.00
2013-5-6,42,39,37,40,37,34,94,92,89,0.00,40.00,48,21,62,0.00
2013-5-7,38,36,34,36,34,32,95,93,91,0.00,40.00,50,23,58,0.00
2013-5-8,53,41,34,41,36,28,95,85,59,0.00,40.00,25,10,30,0.00
2013-5-9,58,51,38,44,34,18,83,53,30,0.00,40.00,19,8,22,0.00
2013-5-10,64,55,50,45,33,-100,65,46,31,0.00,40.00,20,10,24,0.00
2013-5-11,66,63,59,36,30,25,40,29,22,0.00,40.00,22,12,32,0.00
2013-5-12,72,68,63,31,27,24,27,22,18,0.00,40.00,18,9,22,0.00
2013-5-13,76,70,66,34,27,22,26,20,16,0.00,40.00,27,9,30,0.00
2013-5-14,69,63,56,26,21,8,25,20,11,0.00,40.00,56,35,61,0.00
2013-5-15,61,56,53,36,22,6,47,28,13,0.00,40.00,54,32,61,0.00
2013-5-16,62,53,51,32,6,-100,37,27,11,0.00,40.00,45,32,47,0.00
2013-5-17,53,49,43,41,30,-100,83,58,40,0.00,40.00,47,31,58,0.00
2013-5-18,64,53,45,40,33,18,68,49,22,0.00,40.00,50,23,55,0.00
2013-5-19,68,60,53,47,28,10,53,30,14,0.00,40.00,29,10,40,0.00
2013-5-20,68,62,58,38,28,23,43,28,19,0.00,40.00,16,7,20,0.00
2013-5-21,66,62,56,39,32,26,48,33,23,0.00,40.00,37,16,39,0.00
2013-5-22,61,55,48,29,19,-8,35,25,9,0.00,40.00,53,37,60,0.00
2013-5-23,56,50,46,29,3,-18,42,17,5,0.00,40.00,56,29,60,0.00
2013-5-24,64,56,51,34,2,-34,42,16,2,0.00,40.00,36,15,38,0.00
2013-5-25,59,54,48,31,7,-20,45,18,4,0.00,40.00,47,26,51,0.00
2013-5-26,57,52,47,36,16,-26,49,28,3,0.00,40.00,45,28,51,0.00
2013-5-27,66,55,47,39,28,18,55,36,21,0.00,40.00,44,24,53,0.00
2013-5-28,59,54,51,41,34,28,59,47,37,0.00,40.00,43,27,49,0.00
2013-5-29,75,64,53,42,34,25,49,34,20,0.00,40.00,37,14,45,0.00
2013-5-30,73,66,57,45,30,0,46,28,7,0.00,40.00,31,12,34,0.00
2013-5-31,73,69,66,41,28,10,36,23,10,0.00,40.00,23,10,30,0.00
2013-6-1,80,72,66,48,34,26,52,27,15,0.00,40.00,19,9,28,0.00
2013-6-2,75,70,64,38,24,12,36,19,11,0.00,40.00,32,15,38,0.00
2013-6-3,74,66,61,42,28,13,39,25,15,0.00,40.00,35,18,39,0.00
2013-6-4,71,66,61,39,13,-19,34,15,3,0.00,40.00,35,15,39,0.00
2013-6-5,79,70,63,39,14,5,31,12,8,0.00,40.00,19,9,22,0.00
2013-6-6,82,73,66,34,15,-3,26,12,5,0.00,40.00,19,10,22,0.00
2013-6-7,82,76,72,30,19,-7,21,12,4,0.00,40.00,18,7,19,0.00
2013-6-8,79,75,71,44,28,-3,30,19,5,0.00,40.00,11,5,18,0.00
2013-6-9,76,70,62,28,7,-9,22,9,4,0.00,40.00,26,15,32,0.00
2013-6-10,69,64,60,35,19,0,37,19,8,0.00,40.00,35,19,43,0.00
2013-6-11,79,72,64,41,22,-1,31,16,6,0.00,40.00,40,12,43,0.00
2013-6-12,74,70,63,41,25,8,38,19,11,0.00,40.00,33,17,38,0.00
2013-6-13,74,67,62,30,20,3,25,17,9,0.00,40.00,33,18,35,0.00
2013-6-14,78,68,61,35,14,-8,29,14,5,0.00,40.00,29,13,31,0.00
2013-6-15,68,64,60,23,4,-16,20,10,4,0.00,40.00,41,20,43,0.00
2013-6-16,73,66,60,25,5,-28,20,10,2,0.00,40.00,24,14,29,0.00
2013-6-17,75,69,64,32,16,-2,26,14,7,0.00,40.00,23,12,32,0.00
2013-6-18,69,66,57,30,16,-2,25,16,6,0.00,40.00,37,21,47,0.00
2013-6-19,69,62,57,26,13,-15,24,15,4,0.00,40.00,43,26,53,0.00
2013-6-20,75,64,58,12,6,-14,15,10,4,0.00,40.00,38,22,43,0.00
2013-6-22,72,66,60,37,26,17,34,22,17,0.00,40.00,24,15,32,0.00
2013-6-23,65,61,54,34,29,16,43,30,18,0.00,40.00,42,24,53,0.00
2013-6-24,60,55,52,45,30,11,74,43,18,0.00,40.00,50,32,56,0.00
2013-6-25,76,65,53,48,42,37,69,45,33,0.00,40.00,36,14,42,0.00
2013-6-26,77,72,67,50,45,39,47,39,31,0.00,40.00,13,5,16,0.00
2013-6-27,83,74,70,46,36,6,37,26,7,0.00,40.00,20,10,21,0.00
2013-6-28,85,79,73,40,23,4,25,14,6,0.00,40.00,28,17,34,0.00
2013-6-29,92,83,76,41,33,28,24,17,12,0.00,40.00,26,11,33,0.00
2013-6-30,86,82,77,44,35,24,27,19,12,0.00,40.00,22,9,24,0.00
2013-7-1,81,75,70,48,40,33,40,28,20,0.00,40.00,24,14,31,0.00
2013-7-2,82,75,71,50,41,35,40,30,25,0.00,40.00,27,16,39,0.00
2013-7-3,79,73,70,42,38,32,33,27,22,0.00,40.00,32,21,42,0.00
2013-7-4,85,76,71,44,36,23,30,23,15,0.00,40.00,30,16,39,0.00
2013-7-5,80,76,71,53,38,23,41,27,14,0.00,40.00,23,9,26,0.00
2013-7-6,80,75,71,47,41,31,40,30,21,0.00,40.00,9,4,13,0.00
2013-7-7,83,75,70,45,39,33,37,27,18,0.00,40.00,26,9,31,0.00
2013-7-8,86,76,71,39,30,24,26,19,14,0.00,40.00,25,13,28,0.00
2013-7-9,82,76,74,54,42,28,47,31,17,0.00,40.00,18,7,20,0.00
2013-7-10,75,69,67,62,39,-100,75,38,23,0.00,40.00,19,10,24,0.00
2013-7-11,69,64,60,53,46,35,71,53,29,0.00,40.00,24,9,27,0.00
2013-7-12,73,66,61,54,48,45,59,52,43,0.00,40.00,12,6,15,0.00
2013-7-13,79,72,67,50,47,41,54,43,31,0.00,40.00,14,5,15,0.00
2013-7-14,79,73,69,48,46,43,44,38,30,0.00,40.00,17,8,22,0.00
2013-7-15,81,71,64,45,39,29,39,32,23,0.00,40.00,33,17,41,0.00
2013-7-16,72,66,63,30,24,-2,28,21,6,0.00,40.00,43,27,43,0.00
2013-7-17,80,72,64,31,9,-3,21,9,6,0.00,40.00,26,9,37,0.00
2013-7-18,85,78,74,33,16,-12,19,11,3,0.00,40.00,15,6,17,0.00
2013-7-19,78,75,70,57,28,4,63,22,6,0.00,40.00,10,5,14,0.00
2013-7-20,74,65,61,63,54,-100,96,73,9,0.00,40.00,14,8,21,0.00
2013-7-21,67,62,58,61,56,50,95,81,54,0.00,40.00,14,7,22,0.00
2013-7-22,65,62,59,60,56,52,94,81,67,0.00,40.00,19,6,19,0.00
2013-7-23,70,66,62,59,55,50,77,67,53,0.00,40.00,18,7,24,0.00
2013-7-24,75,71,68,55,51,36,56,49,29,0.00,40.00,24,8,29,0.00
2013-7-25,77,73,70,56,45,34,54,38,26,0.00,40.00,18,6,28,0.00
2013-7-26,77,70,67,54,46,33,57,43,25,0.00,40.00,12,6,13,0.00
2013-7-27,76,69,65,51,44,36,57,41,32,0.00,40.00,29,14,32,0.00
2013-7-28,69,65,61,38,34,29,38,32,27,0.00,40.00,41,26,46,0.00
2013-7-29,77,68,62,44,33,20,42,28,17,0.00,40.00,27,12,30,0.00
2013-7-30,77,69,64,51,45,40,54,42,30,0.00,40.00,13,7,18,0.00
2013-7-31,76,71,67,52,24,-14,56,23,3,0.00,40.00,28,15,34,0.00
2013-8-1,76,71,68,35,5,-14,30,9,3,0.00,40.00,28,20,36,0.00
2013-8-2,77,71,65,41,17,-10,32,15,4,0.00,40.00,20,11,22,0.00
2013-8-3,79,72,66,45,12,-11,40,12,4,0.00,40.00,26,8,29,0.00
2013-8-4,78,73,68,36,17,-5,28,14,5,0.00,40.00,31,12,33,0.00
2013-8-5,77,71,67,37,18,-5,27,15,5,0.00,40.00,32,15,34,0.00
2013-8-6,73,68,63,34,17,-1,27,16,7,0.00,40.00,26,16,29,0.00
2013-8-7,71,65,62,30,20,7,29,19,11,0.00,40.00,41,23,43,0.00
2013-8-8,69,64,61,31,24,8,29,22,11,0.00,40.00,41,28,48,0.00
2013-8-9,70,63,58,35,22,2,34,22,9,0.00,40.00,33,21,38,0.00
2013-8-10,73,65,60,40,12,-3,41,14,7,0.00,40.00,24,12,28,0.00
2013-8-11,77,68,63,43,17,-2,44,16,7,0.00,40.00,23,7,24,0.00
2013-8-12,78,70,66,38,28,21,31,22,16,0.00,40.00,22,10,23,0.00
2013-8-13,76,70,68,40,27,-100,34,22,15,0.00,40.00,14,6,23,0.00
2013-8-14,72,70,69,40,33,25,32,25,18,0.00,40.00,7,4,8,0.00